createdAt,value
2019-04-26T00:02:35.334Z,100874.60
2019-04-26T00:05:02.314Z,100888.58
2019-04-26T00:07:29.339Z,100889.01
2019-04-26T00:09:57.247Z,100896.05
2019-04-26T00:12:39.867Z,100892.99
2019-04-26T00:15:19.184Z,100886.45
2019-04-26T00:17:49.381Z,100890.39
2019-04-26T00:20:17.124Z,100902.17
2019-04-26T00:22:45.223Z,100907.90
2019-04-26T00:25:12.524Z,100915.80
2019-04-26T00:27:39.599Z,100904.38
2019-04-26T00:30:06.581Z,100908.33
2019-04-26T00:32:33.567Z,100912.70
2019-04-26T00:35:00.586Z,100927.22
2019-04-26T00:37:27.581Z,100929.42
2019-04-26T00:39:54.528Z,100927.18
2019-04-26T00:42:42.468Z,100930.66
2019-04-26T00:45:09.653Z,100932.87
2019-04-26T00:47:37.495Z,100926.72
2019-04-26T00:50:06.427Z,100917.92
2019-04-26T00:52:34.302Z,100907.80
2019-04-26T00:55:01.567Z,100912.98
2019-04-26T00:57:30.243Z,100918.67
2019-04-26T00:59:57.876Z,100923.05
2019-04-26T01:02:31.103Z,100940.52
2019-04-26T01:04:58.041Z,100935.64
2019-04-26T01:07:25.320Z,100928.59
2019-04-26T01:09:52.476Z,100913.23
2019-04-26T01:12:19.752Z,100915.83
2019-04-26T01:14:46.775Z,100926.73
2019-04-26T01:17:13.701Z,100948.19
2019-04-26T01:19:42.410Z,100964.36
2019-04-26T01:22:14.096Z,100979.30
2019-04-26T01:24:44.202Z,100991.09
2019-04-26T01:27:14.295Z,100998.95
2019-04-26T01:29:43.167Z,100997.21
2019-04-26T01:32:11.688Z,100991.48
2019-04-26T01:34:40.231Z,100990.21
2019-04-26T01:37:07.377Z,100984.91
2019-04-26T01:39:37.506Z,100967.34
2019-04-26T01:42:16.633Z,100955.00
2019-04-26T01:45:00.434Z,100945.33
2019-04-26T01:47:28.415Z,100947.06
2019-04-26T01:49:57.337Z,100970.70
2019-04-26T01:52:25.569Z,100974.27
2019-04-26T01:54:52.763Z,100979.53
2019-04-26T01:57:27.262Z,100994.47
2019-04-26T01:59:58.804Z,100993.15
2019-04-26T02:02:38.448Z,100990.48
2019-04-26T02:05:10.138Z,101001.85
2019-04-26T02:07:40.583Z,101000.03
2019-04-26T02:10:09.881Z,100982.85
2019-04-26T02:12:38.805Z,100974.03
2019-04-26T02:15:06.315Z,100961.27
2019-04-26T02:17:33.651Z,100952.91
2019-04-26T02:20:01.210Z,100952.45
2019-04-26T02:22:37.267Z,100949.73
2019-04-26T02:25:04.735Z,100949.73
2019-04-26T02:27:32.534Z,100931.28
2019-04-26T02:29:59.993Z,100942.54
2019-04-26T02:32:29.439Z,100951.32
2019-04-26T02:34:59.577Z,100956.12
2019-04-26T02:37:28.312Z,100961.38
2019-04-26T02:39:56.384Z,100956.12
2019-04-26T02:42:52.301Z,100957.43
2019-04-26T02:46:02.701Z,100971.44
2019-04-26T02:49:00.865Z,100982.34
2019-04-26T02:51:36.166Z,100991.16
2019-04-26T02:54:09.459Z,101002.57
2019-04-26T02:56:40.159Z,101005.31
2019-04-26T02:59:40.590Z,101011.81
2019-04-26T03:02:18.791Z,101022.72
2019-04-26T03:04:49.094Z,101019.16
2019-04-26T03:07:24.045Z,101018.23
2019-04-26T03:09:53.295Z,101023.02
2019-04-26T03:12:24.184Z,101030.45
2019-04-26T03:15:16.715Z,101022.09
2019-04-26T03:18:18.358Z,101014.12
2019-04-26T03:20:49.965Z,101024.59
2019-04-26T03:23:58.241Z,101036.38
2019-04-26T03:26:57.693Z,101038.55
2019-04-26T03:29:36.995Z,101042.02
2019-04-26T03:32:21.235Z,101039.81
2019-04-26T03:35:20.043Z,101038.03
2019-04-26T03:38:00.893Z,101024.34
2019-04-26T03:40:43.218Z,101024.77
2019-04-26T03:43:41.353Z,101027.40
2019-04-26T03:46:33.598Z,101019.89
2019-04-26T03:49:35.733Z,101017.22
2019-04-26T03:52:30.726Z,101018.06
2019-04-26T03:55:02.221Z,101005.81
2019-04-26T03:57:46.066Z,101006.70
2019-04-26T04:00:52.345Z,101004.92
2019-04-26T04:03:47.814Z,101006.23
2019-04-26T04:06:22.701Z,101013.15
2019-04-26T04:08:56.371Z,101018.28
2019-04-26T04:11:29.950Z,101016.03
2019-04-26T04:14:06.631Z,101013.40
2019-04-26T04:16:51.788Z,101009.37
2019-04-26T04:19:30.929Z,101006.19
2019-04-26T04:22:04.251Z,101001.31
2019-04-26T04:24:39.135Z,101000.38
2019-04-26T04:27:10.541Z,101001.17
2019-04-26T04:30:39.983Z,101003.77
2019-04-26T04:33:15.714Z,100998.04
2019-04-26T04:35:50.855Z,101010.28
2019-04-26T04:38:45.836Z,101021.27
2019-04-26T04:41:26.880Z,101023.09
2019-04-26T04:44:09.074Z,101020.05
2019-04-26T04:47:26.137Z,101030.13
2019-04-26T04:50:06.362Z,101039.42
2019-04-26T04:52:55.697Z,101042.98
2019-04-26T04:55:47.900Z,101045.61
2019-04-26T04:58:22.242Z,101036.87
2019-04-26T05:01:48.289Z,101039.51
2019-04-26T05:04:24.375Z,101036.41
2019-04-26T05:07:33.991Z,101032.09
2019-04-26T05:10:15.702Z,101019.80
2019-04-26T05:13:00.874Z,101006.23
2019-04-26T05:16:06.840Z,101004.03
2019-04-26T05:19:05.544Z,101036.59
2019-04-26T05:21:49.436Z,101056.91
2019-04-26T05:24:31.982Z,101070.18
2019-04-26T05:27:55.723Z,101069.84
2019-04-26T05:31:04.184Z,101066.41
2019-04-26T05:34:22.116Z,101065.14
2019-04-26T05:36:59.553Z,101056.02
2019-04-26T05:39:39.322Z,101061.32
2019-04-26T05:42:49.766Z,101066.63
2019-04-26T05:46:13.327Z,101074.98
2019-04-26T05:49:18.324Z,101086.44
2019-04-26T05:52:46.261Z,101095.72
2019-04-26T05:56:17.202Z,101116.81
2019-04-26T05:59:10.331Z,101121.18
2019-04-26T06:02:12.703Z,101131.36
2019-04-26T06:08:31.537Z,101123.94
2019-04-26T06:11:54.635Z,101117.41
2019-04-26T06:15:00.873Z,101118.47
2019-04-26T06:17:53.147Z,101120.89
2019-04-26T06:20:29.099Z,101132.81
2019-04-26T06:23:27.661Z,101137.98
2019-04-26T06:26:31.330Z,101138.92
2019-04-26T06:29:05.842Z,101143.72
2019-04-26T06:31:45.649Z,101152.08
2019-04-26T06:34:27.812Z,101159.17
2019-04-26T06:37:35.102Z,101164.98
2019-04-26T06:40:16.674Z,101149.71
2019-04-26T06:43:29.501Z,101151.91
2019-04-26T06:50:12.528Z,101139.69
2019-04-26T06:53:00.228Z,101126.58
2019-04-26T06:55:46.799Z,101124.87
2019-04-26T06:58:43.306Z,101130.61
2019-04-26T07:01:24.310Z,101140.84
2019-04-26T07:04:33.334Z,101154.64
2019-04-26T07:07:45.944Z,101181.09
2019-04-26T07:10:33.439Z,101201.00
2019-04-26T07:13:37.157Z,101174.29
2019-04-26T07:16:23.215Z,101167.28
2019-04-26T07:19:24.095Z,101183.55
2019-04-26T07:22:35.313Z,101192.77
2019-04-26T07:25:39.305Z,101188.89
2019-04-26T07:28:47.472Z,101189.36
2019-04-26T07:31:48.300Z,101202.52
2019-04-26T07:34:57.435Z,101207.11
2019-04-26T07:38:01.297Z,101219.17
2019-04-26T07:41:23.763Z,101215.00
2019-04-26T07:44:35.414Z,101212.41
2019-04-26T07:48:17.475Z,101218.38
2019-04-26T07:51:09.879Z,101222.97
2019-04-26T07:54:06.790Z,101220.37
2019-04-26T07:57:04.586Z,101228.31
2019-04-26T08:00:11.635Z,101222.27
2019-04-26T08:03:07.228Z,101232.47
2019-04-26T08:05:49.996Z,101233.40
2019-04-26T08:08:19.903Z,101234.83
2019-04-26T08:11:01.744Z,101234.33
2019-04-26T08:13:31.883Z,101227.50
2019-04-26T08:16:21.792Z,101227.25
2019-04-26T08:18:58.046Z,101229.58
2019-04-26T08:21:31.889Z,101231.97
2019-04-26T08:24:12.074Z,101220.92
2019-04-26T08:26:41.631Z,101222.45
2019-04-26T08:29:12.671Z,101210.66
2019-04-26T08:31:42.598Z,101212.27
2019-04-26T08:34:14.520Z,101222.31
2019-04-26T08:36:51.728Z,101239.75
2019-04-26T08:39:29.615Z,101252.37
2019-04-26T08:41:56.993Z,101264.13
2019-04-26T08:44:51.128Z,101259.21
2019-04-26T08:47:50.051Z,101248.23
2019-04-26T08:50:36.007Z,101258.06
2019-04-26T08:53:04.094Z,101278.00
2019-04-26T08:55:33.451Z,101273.61
2019-04-26T08:58:05.912Z,101269.26
2019-04-26T09:00:48.353Z,101270.55
2019-04-26T09:03:40.162Z,101268.83
2019-04-26T09:06:21.556Z,101268.80
2019-04-26T09:08:50.748Z,101266.33
2019-04-26T09:11:25.864Z,101271.02
2019-04-26T09:13:51.553Z,101275.87
2019-04-26T09:16:20.315Z,101277.45
2019-04-26T09:18:52.679Z,101278.34
2019-04-26T09:21:19.937Z,101279.46
2019-04-26T09:24:08.288Z,101275.95
2019-04-26T09:26:55.124Z,101271.17
2019-04-26T09:29:26.308Z,101266.62
2019-04-26T09:32:00.599Z,101264.90
2019-04-26T09:34:32.258Z,101270.67
2019-04-26T09:36:59.420Z,101269.91
2019-04-26T09:39:26.504Z,101261.25
2019-04-26T09:41:56.155Z,101257.68
2019-04-26T09:44:41.464Z,101256.73
2019-04-26T09:47:32.387Z,101263.08
2019-04-26T09:50:21.799Z,101272.80
2019-04-26T09:52:50.228Z,101272.47
2019-04-26T09:55:17.300Z,101273.55
2019-04-26T09:57:44.284Z,101266.69
2019-04-26T10:00:50.187Z,101269.36
2019-04-26T10:03:17.344Z,101267.28
2019-04-26T10:05:44.471Z,101268.03
2019-04-26T10:08:13.150Z,101268.13
2019-04-26T10:10:40.341Z,101273.73
2019-04-26T10:13:36.231Z,101276.19
2019-04-26T10:16:25.793Z,101272.80
2019-04-26T10:18:58.400Z,101258.39
2019-04-26T10:21:27.558Z,101267.47
2019-04-26T10:23:54.541Z,101276.80
2019-04-26T10:26:36.998Z,101284.35
2019-04-26T10:29:04.179Z,101288.25
2019-04-26T10:31:31.195Z,101288.21
2019-04-26T10:33:58.232Z,101287.30
2019-04-26T10:36:26.249Z,101283.41
2019-04-26T10:38:54.586Z,101279.09
2019-04-26T10:41:23.470Z,101278.73
2019-04-26T10:43:50.438Z,101277.44
2019-04-26T10:46:17.375Z,101275.84
2019-04-26T10:48:49.665Z,101275.61
2019-04-26T10:51:17.793Z,101286.12
2019-04-26T10:54:12.611Z,101286.70
2019-04-26T10:57:06.279Z,101285.52
2019-04-26T10:59:39.751Z,101292.67
2019-04-26T11:02:10.528Z,101294.97
2019-04-26T11:04:41.424Z,101285.31
2019-04-26T11:07:08.214Z,101274.61
2019-04-26T11:09:35.158Z,101271.03
2019-04-26T11:12:21.059Z,101270.75
2019-04-26T11:14:48.021Z,101277.13
2019-04-26T11:17:17.572Z,101266.26
2019-04-26T11:19:44.554Z,101259.38
2019-04-26T11:22:11.511Z,101254.69
2019-04-26T11:24:38.451Z,101256.10
2019-04-26T11:27:09.694Z,101260.92
2019-04-26T11:29:34.660Z,101261.05
2019-04-26T11:32:02.820Z,101260.66
2019-04-26T11:34:30.628Z,101270.41
2019-04-26T11:36:57.754Z,101276.95
2019-04-26T11:39:27.909Z,101274.28
2019-04-26T11:41:53.710Z,101283.59
2019-04-26T11:44:23.435Z,101273.87
2019-04-26T11:46:49.548Z,101279.71
2019-04-26T11:49:16.536Z,101270.92
2019-04-26T11:51:43.488Z,101269.45
2019-04-26T11:54:10.430Z,101263.74
2019-04-26T11:56:38.744Z,101266.80
2019-04-26T11:59:05.897Z,101266.34
2019-04-26T12:01:36.644Z,101262.12
2019-04-26T12:04:12.690Z,101264.93
2019-04-26T12:06:59.236Z,101270.20
2019-04-26T12:09:36.937Z,101278.66
2019-04-26T12:12:14.341Z,101279.49
2019-04-26T12:14:41.415Z,101277.19
2019-04-26T12:17:08.379Z,101274.50
2019-04-26T12:19:35.337Z,101277.34
2019-04-26T12:22:04.195Z,101274.31
2019-04-26T12:24:34.430Z,101267.24
2019-04-26T12:27:00.355Z,101274.88
2019-04-26T12:29:27.375Z,101272.69
2019-04-26T12:31:54.379Z,101276.23
2019-04-26T12:34:21.651Z,101271.77
2019-04-26T12:36:48.616Z,101267.78
2019-04-26T12:39:16.605Z,101267.33
2019-04-26T12:41:43.627Z,101265.11
2019-04-26T12:44:11.608Z,101263.78
2019-04-26T12:46:50.503Z,101266.39
2019-04-26T12:49:20.385Z,101254.47
2019-04-26T12:55:58.159Z,101258.02
2019-04-26T12:58:25.279Z,101252.66
2019-04-26T13:00:54.071Z,101257.47
2019-04-26T13:03:24.945Z,101251.87
2019-04-26T13:05:57.606Z,101251.06
2019-04-26T13:08:20.661Z,101243.73
2019-04-26T13:11:14.875Z,101244.97
2019-04-26T13:13:43.660Z,101249.41
2019-04-26T13:16:15.980Z,101229.47
2019-04-26T13:18:45.404Z,101238.45
2019-04-26T13:21:11.929Z,101247.12
2019-04-26T13:23:38.932Z,101242.35
2019-04-26T13:26:05.901Z,101240.87
2019-04-26T13:28:32.845Z,101239.66
2019-04-26T13:31:02.208Z,101249.05
2019-04-26T13:33:29.219Z,101251.61
2019-04-26T13:36:02.699Z,101256.82
2019-04-26T13:38:25.296Z,101251.83
2019-04-26T13:41:11.699Z,101254.53
2019-04-26T13:44:50.325Z,101247.02
2019-04-26T13:47:48.598Z,101248.33
2019-04-26T13:50:22.312Z,101255.27
2019-04-26T13:52:48.267Z,101257.59
2019-04-26T13:55:15.207Z,101254.01
2019-04-26T13:57:44.443Z,101249.30
2019-04-26T14:00:15.608Z,101259.11
2019-04-26T14:02:42.598Z,101253.91
2019-04-26T14:05:11.079Z,101250.52
2019-04-26T14:07:38.437Z,101250.80
2019-04-26T14:10:05.596Z,101247.62
2019-04-26T14:12:32.543Z,101241.05
2019-04-26T14:14:59.589Z,101244.35
2019-04-26T14:17:29.801Z,101240.15
2019-04-26T14:19:55.493Z,101241.32
2019-04-26T14:23:25.097Z,101240.60
2019-04-26T14:26:06.605Z,101237.59
2019-04-26T14:28:33.952Z,101228.45
2019-04-26T14:31:00.907Z,101228.27
2019-04-26T14:33:30.827Z,101232.99
2019-04-26T14:35:56.806Z,101234.42
2019-04-26T14:38:28.023Z,101230.64
2019-04-26T14:41:03.731Z,101228.92
2019-04-26T14:43:22.410Z,101234.21
2019-04-26T14:45:56.210Z,101227.32
2019-04-26T14:48:20.899Z,101225.98
2019-04-26T14:50:48.496Z,101223.21
2019-04-26T14:53:15.472Z,101230.55
2019-04-26T14:55:42.500Z,101227.76
2019-04-26T14:58:09.472Z,101221.18
2019-04-26T15:00:38.640Z,101233.59
2019-04-26T15:03:26.553Z,101232.91
2019-04-26T15:06:05.046Z,101225.73
2019-04-26T15:08:34.057Z,101221.73
2019-04-26T15:11:02.764Z,101225.89
2019-04-26T15:13:29.800Z,101227.66
2019-04-26T15:15:56.924Z,101233.34
2019-04-26T15:18:23.946Z,101231.59
2019-04-26T15:20:53.151Z,101234.88
2019-04-26T15:23:23.876Z,101241.13
2019-04-26T15:25:49.908Z,101245.59
2019-04-26T15:28:17.977Z,101246.03
2019-04-26T15:30:46.866Z,101246.92
2019-04-26T15:33:14.071Z,101245.53
2019-04-26T15:35:44.429Z,101249.97
2019-04-26T15:38:11.385Z,101243.77
2019-04-26T15:40:57.207Z,101238.45
2019-04-26T15:43:32.733Z,101248.25
2019-04-26T15:46:12.344Z,101248.26
2019-04-26T15:49:03.078Z,101245.59
2019-04-26T15:51:32.489Z,101241.59
2019-04-26T15:54:00.588Z,101239.83
2019-04-26T15:56:27.524Z,101242.03
2019-04-26T15:58:54.492Z,101248.64
2019-04-26T16:01:21.698Z,101250.41
2019-04-26T16:03:48.651Z,101257.06
2019-04-26T16:06:15.583Z,101253.50
2019-04-26T16:08:43.899Z,101253.49
2019-04-26T16:11:12.365Z,101252.61
2019-04-26T16:13:39.450Z,101254.82
2019-04-26T16:16:06.400Z,101247.72
2019-04-26T16:18:35.212Z,101246.39
2019-04-26T16:21:03.583Z,101251.70
2019-04-26T16:27:03.214Z,101251.27
2019-04-26T16:30:14.323Z,101252.64
2019-04-26T16:33:07.013Z,101251.36
2019-04-26T16:35:34.643Z,101251.75
2019-04-26T16:38:22.486Z,101252.19
2019-04-26T16:40:53.461Z,101252.20
2019-04-26T16:43:34.874Z,101254.46
2019-04-26T16:45:48.771Z,101255.74
2019-04-26T16:48:17.358Z,101257.04
2019-04-26T16:50:49.614Z,101264.55
2019-04-26T16:53:37.762Z,101264.09
2019-04-26T16:55:53.557Z,101264.53
2019-04-26T16:58:20.542Z,101264.95
2019-04-26T17:00:54.256Z,101275.56
2019-04-26T17:03:16.540Z,101274.22
2019-04-26T17:05:48.398Z,101271.08
2019-04-26T17:08:12.992Z,101267.95
2019-04-26T17:10:40.033Z,101277.66
2019-04-26T17:13:07.184Z,101276.72
2019-04-26T17:15:34.677Z,101276.69
2019-04-26T17:18:02.572Z,101276.69
2019-04-26T17:20:29.548Z,101287.22
2019-04-26T17:23:16.155Z,101279.62
2019-04-26T17:26:02.041Z,101280.48
2019-04-26T17:28:30.548Z,101287.03
2019-04-26T17:30:58.110Z,101294.95
2019-04-26T17:33:28.326Z,101295.77
2019-04-26T17:35:54.126Z,101286.83
2019-04-26T17:38:22.428Z,101285.01
2019-04-26T17:40:50.478Z,101289.78
2019-04-26T17:43:17.583Z,101282.19
2019-04-26T17:45:44.631Z,101284.79
2019-04-26T17:48:14.120Z,101283.46
2019-04-26T17:50:42.264Z,101285.72
2019-04-26T17:53:10.688Z,101286.59
2019-04-26T17:55:38.099Z,101288.31
2019-04-26T17:58:17.491Z,101290.94
2019-04-26T18:00:45.805Z,101293.55
2019-04-26T18:03:11.674Z,101293.48
2019-04-26T18:05:55.821Z,101292.02
2019-04-26T18:08:31.558Z,101292.34
2019-04-26T18:10:35.716Z,101297.57
2019-04-26T18:13:04.110Z,101298.36
2019-04-26T18:15:49.594Z,101300.48
2019-04-26T18:18:35.014Z,101302.60
2019-04-26T18:21:39.507Z,101306.90
2019-04-26T18:24:06.521Z,101309.86
2019-04-26T18:26:33.484Z,101314.98
2019-04-26T18:29:00.478Z,101306.97
2019-04-26T18:31:30.087Z,101312.66
2019-04-26T18:34:00.661Z,101307.27
2019-04-26T18:36:27.612Z,101307.59
2019-04-26T18:38:55.438Z,101311.02
2019-04-26T18:41:28.252Z,101315.70
2019-04-26T18:43:54.160Z,101306.66
2019-04-26T18:46:31.836Z,101305.59
2019-04-26T18:48:58.857Z,101311.11
2019-04-26T18:51:25.800Z,101316.62
2019-04-26T18:54:05.225Z,101307.98
2019-04-26T18:56:39.758Z,101313.02
2019-04-26T18:59:07.339Z,101324.66
2019-04-26T19:01:34.732Z,101328.23
2019-04-26T19:04:09.511Z,101330.00
2019-04-26T19:06:33.532Z,101330.97
2019-04-26T19:09:02.351Z,101328.39
2019-04-26T19:11:35.983Z,101337.28
2019-04-26T19:14:23.503Z,101334.32
2019-04-26T19:17:03.781Z,101341.95
2019-04-26T19:19:53.746Z,101344.25
2019-04-26T19:22:22.322Z,101348.75
2019-04-26T19:24:55.895Z,101352.44
2019-04-26T19:27:26.612Z,101347.31
2019-04-26T19:29:51.783Z,101353.61
2019-04-26T19:32:21.281Z,101358.06
2019-04-26T19:34:48.044Z,101355.94
2019-04-26T19:37:16.121Z,101359.17
2019-04-26T19:39:43.138Z,101358.05
2019-04-26T19:42:11.774Z,101356.90
2019-04-26T19:44:39.106Z,101352.69
2019-04-26T19:47:23.345Z,101356.45
2019-04-26T19:50:21.982Z,101358.81
2019-04-26T19:53:02.505Z,101357.59
2019-04-26T19:55:36.730Z,101364.37
2019-04-26T19:58:15.973Z,101364.88
2019-04-26T20:00:42.806Z,101363.32
2019-04-26T20:03:08.508Z,101372.91
2019-04-26T20:05:40.629Z,101376.48
2019-04-26T20:08:06.109Z,101376.48
2019-04-26T20:10:39.910Z,101377.75
2019-04-26T20:13:02.627Z,101378.45
2019-04-26T20:15:31.647Z,101375.42
2019-04-26T20:17:59.976Z,101377.77
2019-04-26T20:20:32.006Z,101372.55
2019-04-26T20:22:59.298Z,101385.50
2019-04-26T20:25:26.370Z,101373.13
2019-04-26T20:27:59.789Z,101366.92
2019-04-26T20:30:45.195Z,101372.28
2019-04-26T20:33:12.256Z,101367.98
2019-04-26T20:35:42.456Z,101374.75
2019-04-26T20:38:11.854Z,101366.97
2019-04-26T20:40:39.179Z,101363.66
2019-04-26T20:43:07.028Z,101369.64
2019-04-26T20:45:41.349Z,101364.75
2019-04-26T20:48:06.033Z,101365.84
2019-04-26T20:50:36.872Z,101364.37
2019-04-26T20:53:04.162Z,101365.98
2019-04-26T20:55:34.501Z,101379.02
2019-04-26T20:58:00.066Z,101384.98
2019-04-26T21:00:27.486Z,101388.70
2019-04-26T21:03:01.654Z,101382.20
2019-04-26T21:05:23.643Z,101375.91
2019-04-26T21:07:52.444Z,101380.55
2019-04-26T21:10:25.439Z,101371.47
2019-04-26T21:12:54.018Z,101369.11
2019-04-26T21:15:23.922Z,101361.97
2019-04-26T21:17:49.144Z,101361.82
2019-04-26T21:20:16.361Z,101361.19
2019-04-26T21:22:43.458Z,101351.84
2019-04-26T21:25:32.459Z,101352.57
2019-04-26T21:28:23.741Z,101358.55
2019-04-26T21:31:03.387Z,101356.22
2019-04-26T21:33:38.863Z,101355.16
2019-04-26T21:36:23.269Z,101366.40
2019-04-26T21:39:04.079Z,101366.08
2019-04-26T21:41:31.579Z,101363.11
2019-04-26T21:44:03.122Z,101358.84
2019-04-26T21:46:30.165Z,101364.25
2019-04-26T21:48:57.158Z,101362.19
2019-04-26T21:51:24.139Z,101357.44
2019-04-26T21:53:52.891Z,101353.92
2019-04-26T21:56:19.990Z,101357.64
2019-04-26T21:58:46.954Z,101356.56
2019-04-26T22:01:33.163Z,101361.83
2019-04-26T22:04:00.172Z,101352.05
2019-04-26T22:06:28.713Z,101350.96
2019-04-26T22:09:06.084Z,101348.19
2019-04-26T22:11:33.266Z,101340.99
2019-04-26T22:14:08.025Z,101350.53
2019-04-26T22:17:01.988Z,101347.33
2019-04-26T22:19:46.306Z,101344.78
2019-04-26T22:22:41.511Z,101338.80
2019-04-26T22:25:09.423Z,101344.52
2019-04-26T22:27:38.622Z,101344.95
2019-04-26T22:30:09.984Z,101340.17
2019-04-26T22:32:37.061Z,101338.12
2019-04-26T22:35:04.036Z,101340.53
2019-04-26T22:37:31.065Z,101342.05
2019-04-26T22:39:58.336Z,101345.08
2019-04-26T22:42:26.338Z,101338.55
2019-04-26T22:45:09.284Z,101340.95
2019-04-26T22:47:43.853Z,101342.52
2019-04-26T22:50:14.084Z,101335.37
2019-04-26T22:52:46.636Z,101338.25
2019-04-26T22:55:10.719Z,101338.97
2019-04-26T22:57:37.710Z,101342.59
2019-04-26T23:00:06.087Z,101341.41
2019-04-26T23:02:37.497Z,101338.61
2019-04-26T23:05:05.980Z,101340.64
2019-04-26T23:07:33.373Z,101337.42
2019-04-26T23:10:04.846Z,101341.19
2019-04-26T23:12:58.052Z,101343.16
2019-04-26T23:16:00.744Z,101336.42
2019-04-26T23:19:08.786Z,101330.40
2019-04-26T23:21:38.642Z,101333.61
2019-04-26T23:24:05.943Z,101338.14
2019-04-26T23:26:37.516Z,101335.34
2019-04-26T23:29:03.783Z,101339.21
2019-04-26T23:31:30.929Z,101333.30
2019-04-26T23:33:57.938Z,101324.77
2019-04-26T23:36:25.074Z,101326.98
2019-04-26T23:38:53.138Z,101328.53
2019-04-26T23:41:27.761Z,101332.81
2019-04-26T23:44:40.218Z,101330.55
2019-04-26T23:47:18.388Z,101330.97
2019-04-26T23:49:36.313Z,101326.14
2019-04-26T23:52:03.773Z,101321.61
2019-04-26T23:54:32.400Z,101323.27
2019-04-26T23:57:05.940Z,101323.88
2019-04-26T23:59:33.732Z,101329.36
